Currently 77°F in Anza, California, USA
77°F
78°F / 43°F
9 mph NW
0.00"
Monday, June 18, 2018 1:55 PM PDT

Anza, California Weather Summary
Last 36 Hours

Temperature Winds Hourly Humidity Dewpoint
Time Report Norm Report Norm Max Gusts Precip. Rpt. Norm Rpt. Norm Pressure
1Mon 01:55 PM  77.0°F  89°F  9 mph NW  12 mph  17 mph  0.00"  36%  16%  47°F  36°F  N/A
2Mon 01:46 PM  77.7°F  89°F  12 mph NW  12 mph  17 mph  ----  36%  16%  48°F  36°F  N/A
Mon 01:00 PM  76.2°F  89°F  6 mph NW  12 mph  19 mph  0.00"  36%  16%  47°F  35°F  N/A
Mon 12:00 PM  74.1°F  87°F  9 mph NW  11 mph  20 mph  0.00"  40%  16%  47°F  35°F  N/A
Mon 11:00 AM  70.9°F  86°F  8 mph NW  9 mph  16 mph  0.00"  42%  17%  46°F  34°F  N/A
Mon 10:00 AM  65.4°F  83°F  11 mph NW  9 mph  19 mph  0.00"  52%  18%  46°F  34°F  N/A
Mon 09:00 AM  61.4°F  80°F  12 mph NW  9 mph  17 mph  0.00"  59%  22%  46°F  36°F  N/A
Mon 08:00 AM  56.5°F  75°F  5 mph NW  8 mph  15 mph  0.00"  64%  29%  44°F  39°F  N/A
Mon 07:00 AM  45.5°F  67°F  4 mph N  6 mph  13 mph  0.00"  97%  40%  45°F  41°F  N/A
3Mon 06:19 AM  43.4°F  61°F  2 mph N  5 mph  12 mph  ----  98%  46%  43°F  39°F  N/A
Mon 06:00 AM  44.5°F  60°F  5 mph NW  4 mph  15 mph  0.00"  98%  47%  44°F  39°F  N/A
Mon 05:00 AM  45.6°F  60°F  5 mph N  4 mph  18 mph  0.00"  98%  48%  45°F  39°F  N/A
Mon 04:00 AM  46.1°F  61°F  7 mph N  4 mph  19 mph  0.00"  98%  49%  45°F  41°F  N/A
Mon 03:00 AM  46.5°F  61°F  10 mph NW  4 mph  20 mph  0.00"  97%  51%  46°F  42°F  N/A
Mon 02:00 AM  47.2°F  61°F  14 mph NW  5 mph  21 mph  0.00"  97%  52%  46°F  43°F  N/A
Mon 01:00 AM  48.5°F  62°F  6 mph N  5 mph  21 mph  0.00"  97%  53%  48°F  44°F  N/A
Mon 12:00 AM  48.2°F  62°F  9 mph NW  7 mph  21 mph  0.00"  99%  53%  48°F  44°F  N/A
Sun 11:00 PM  48.5°F  64°F  12 mph NW  7 mph  16 mph  0.00"  98%  51%  48°F  45°F  N/A
Sun 10:00 PM  49.0°F  65°F  5 mph N  6 mph  14 mph  0.00"  96%  48%  48°F  45°F  N/A
Sun 09:00 PM  51.8°F  68°F  6 mph N  7 mph  14 mph  0.00"  90%  44%  49°F  44°F  N/A
Sun 08:00 PM  55.6°F  73°F  8 mph NW  8 mph  20 mph  0.00"  81%  38%  50°F  45°F  N/A
Sun 07:00 PM  61.2°F  79°F  15 mph W  12 mph  24 mph  0.00"  67%  30%  50°F  44°F  N/A
Sun 06:00 PM  65.0°F  83°F  17 mph W  13 mph  25 mph  0.00"  60%  25%  50°F  43°F  N/A
Sun 05:00 PM  67.2°F  86°F  20 mph W  13 mph  28 mph  0.00"  54%  22%  49°F  41°F  N/A
Sun 04:00 PM  68.7°F  88°F  14 mph W  13 mph  28 mph  0.00"  50%  19%  49°F  39°F  N/A
Sun 03:00 PM  68.2°F  89°F  19 mph W  13 mph  29 mph  0.00"  49%  18%  48°F  37°F  N/A
Sun 02:00 PM  69.2°F  89°F  20 mph W  11 mph  26 mph  0.00"  47%  17%  47°F  37°F  N/A
Sun 01:00 PM  67.5°F  88°F  15 mph W  11 mph  24 mph  0.00"  47%  17%  46°F  36°F  N/A
Sun 12:00 PM  64.8°F  87°F  13 mph NW  11 mph  24 mph  0.00"  51%  17%  46°F  35°F  N/A
Sun 11:00 AM  61.7°F  86°F  16 mph W  9 mph  22 mph  0.00"  59%  17%  47°F  35°F  N/A
Sun 10:00 AM  57.2°F  83°F  9 mph NW  9 mph  20 mph  0.00"  71%  18%  47°F  34°F  N/A
Sun 09:00 AM  53.8°F  80°F  12 mph W  9 mph  20 mph  0.00"  82%  22%  48°F  37°F  N/A
Sun 08:00 AM  50.2°F  74°F  12 mph W  8 mph  21 mph  0.00"  90%  30%  47°F  40°F  N/A
Sun 07:00 AM  47.4°F  67°F  13 mph NW  6 mph  22 mph  0.00"  97%  41%  46°F  42°F  N/A
Sun 06:00 AM  47.4°F  60°F  14 mph NW  4 mph  21 mph  0.00"  98%  48%  47°F  39°F  N/A
Sun 05:00 AM  47.4°F  60°F  12 mph NW  4 mph  19 mph  0.00"  97%  49%  47°F  40°F  N/A
Sun 04:00 AM  47.8°F  60°F  13 mph NW  4 mph  21 mph  0.00"  97%  50%  47°F  41°F  N/A
Sun 03:00 AM  48.3°F  61°F  11 mph NW  4 mph  23 mph  0.00"  98%  52%  48°F  42°F  N/A
Sun 02:00 AM  49.0°F  61°F  13 mph NW  5 mph  22 mph  0.00"  97%  53%  48°F  43°F  N/A

  1. Current weather data. No green row appears if the current weather data is also the high or low for the current day.
  2. High temperature for the current day.
  3. Low temperature for the current day.

The Anza, California weather pages are a service of WeatherCurrents. The Anza Valley is southwestern Riverside County, east of Temecula and Aguanga, south of Mount San Jacinto and west of Mount Santa Rosa.
Copyright ©Mon Jun 18 13:55:58 PDT 2018  WeatherCurrents. All rights reserved. - Submit questions and comments - Privacy Policy

This page automatically refreshes every 10 minutes.